createdAt,value
2023-05-17T00:00:10.106Z,15.70
2023-05-17T00:02:37.557Z,15.80
2023-05-17T00:05:05.111Z,15.70
2023-05-17T00:07:32.388Z,15.80
2023-05-17T00:09:59.975Z,15.80
2023-05-17T00:12:27.096Z,15.80
2023-05-17T00:14:54.193Z,15.80
2023-05-17T00:17:21.571Z,15.70
2023-05-17T00:19:50.664Z,15.60
2023-05-17T00:22:18.216Z,15.60
2023-05-17T00:24:45.542Z,15.70
2023-05-17T00:27:13.250Z,15.70
2023-05-17T00:29:40.310Z,15.60
2023-05-17T00:32:07.722Z,15.50
2023-05-17T00:34:37.677Z,15.60
2023-05-17T00:37:04.922Z,15.60
2023-05-17T00:39:32.170Z,15.70
2023-05-17T00:42:00.142Z,15.80
2023-05-17T00:44:27.447Z,15.80
2023-05-17T00:46:54.639Z,15.70
2023-05-17T00:49:22.042Z,15.80
2023-05-17T00:51:49.276Z,15.60
2023-05-17T00:54:16.450Z,15.50
2023-05-17T00:56:43.622Z,15.50
2023-05-17T00:59:10.864Z,15.50
2023-05-17T01:01:38.024Z,15.60
2023-05-17T01:04:05.390Z,15.60
2023-05-17T01:06:32.664Z,15.60
2023-05-17T01:08:59.750Z,15.70
2023-05-17T01:11:56.251Z,15.70
2023-05-17T01:14:44.465Z,15.60
2023-05-17T01:17:18.384Z,15.60
2023-05-17T01:20:06.531Z,15.60
2023-05-17T01:22:47.804Z,15.60
2023-05-17T01:25:35.304Z,15.50
2023-05-17T01:28:02.826Z,15.50
2023-05-17T01:30:30.368Z,15.50
2023-05-17T01:32:59.284Z,15.50
2023-05-17T01:35:27.012Z,15.40
2023-05-17T01:37:54.639Z,15.40
2023-05-17T01:40:21.984Z,15.40
2023-05-17T01:43:03.166Z,15.30
2023-05-17T01:45:54.189Z,15.20
2023-05-17T01:48:24.069Z,15.10
2023-05-17T01:50:52.309Z,15.00
2023-05-17T01:53:24.041Z,15.10
2023-05-17T01:55:57.146Z,15.20
2023-05-17T01:58:26.072Z,15.20
2023-05-17T02:00:55.677Z,15.20
2023-05-17T02:03:23.169Z,15.20
2023-05-17T02:05:50.610Z,15.20
2023-05-17T02:08:17.970Z,15.10
2023-05-17T02:10:45.160Z,15.10
2023-05-17T02:13:12.944Z,15.10
2023-05-17T02:15:40.075Z,15.10
2023-05-17T02:18:07.726Z,15.10
2023-05-17T02:20:34.987Z,15.10
2023-05-17T02:23:02.415Z,15.10
2023-05-17T02:25:29.755Z,15.10
2023-05-17T02:27:57.236Z,15.00
2023-05-17T02:30:25.092Z,15.00
2023-05-17T02:32:52.578Z,15.00
2023-05-17T02:35:20.010Z,15.00
2023-05-17T02:37:47.152Z,15.00
2023-05-17T02:40:16.301Z,15.00
2023-05-17T02:45:40.870Z,14.70
2023-05-17T02:48:10.648Z,14.60
2023-05-17T02:50:38.038Z,14.50
2023-05-17T02:53:05.157Z,14.40
2023-05-17T02:55:32.246Z,14.40
2023-05-17T02:57:59.461Z,14.40
2023-05-17T03:00:26.677Z,14.30
2023-05-17T03:02:53.828Z,14.20
2023-05-17T03:05:21.271Z,14.30
2023-05-17T03:07:51.509Z,14.30
2023-05-17T03:10:18.833Z,14.40
2023-05-17T03:12:46.138Z,14.40
2023-05-17T03:15:13.874Z,14.40
2023-05-17T03:17:41.071Z,14.40
2023-05-17T03:20:08.612Z,14.50
2023-05-17T03:22:35.897Z,14.50
2023-05-17T03:25:04.181Z,14.60
2023-05-17T03:27:31.538Z,14.50
2023-05-17T03:29:58.765Z,14.50
2023-05-17T03:32:26.274Z,14.40
2023-05-17T03:34:53.347Z,14.30
2023-05-17T03:37:20.590Z,14.30
2023-05-17T03:39:47.763Z,14.30
2023-05-17T03:42:14.873Z,14.40
2023-05-17T03:44:42.138Z,14.50
2023-05-17T03:47:09.330Z,14.50
2023-05-17T03:49:36.422Z,14.50
2023-05-17T03:52:03.786Z,14.50
2023-05-17T03:54:31.074Z,14.50
2023-05-17T03:56:58.161Z,14.40
2023-05-17T03:59:25.489Z,14.50
2023-05-17T04:01:52.552Z,14.50
2023-05-17T04:04:22.414Z,14.70
2023-05-17T04:06:49.507Z,14.70
2023-05-17T04:09:16.815Z,14.70
2023-05-17T04:11:46.993Z,14.80
2023-05-17T04:14:14.687Z,14.90
2023-05-17T04:16:41.758Z,14.90
2023-05-17T04:19:08.991Z,15.00
2023-05-17T04:21:36.232Z,15.20
2023-05-17T04:24:03.421Z,15.20
2023-05-17T04:26:30.866Z,15.30
2023-05-17T04:28:58.121Z,15.30
2023-05-17T04:31:25.202Z,15.40
2023-05-17T04:33:52.449Z,15.50
2023-05-17T04:36:19.680Z,15.60
2023-05-17T04:38:47.426Z,15.60
2023-05-17T04:41:14.538Z,15.60
2023-05-17T04:43:42.250Z,15.50
2023-05-17T04:46:09.340Z,15.50
2023-05-17T04:48:36.883Z,15.50
2023-05-17T04:51:04.675Z,15.50
2023-05-17T04:53:31.862Z,15.40
2023-05-17T04:55:59.375Z,15.30
2023-05-17T04:58:26.464Z,15.40
2023-05-17T05:00:53.639Z,15.30
2023-05-17T05:03:21.571Z,15.30
2023-05-17T05:05:48.835Z,15.30
2023-05-17T05:08:16.339Z,15.30
2023-05-17T05:10:43.482Z,15.40
2023-05-17T05:13:10.573Z,15.40
2023-05-17T05:15:43.457Z,15.50
2023-05-17T05:18:10.697Z,15.50
2023-05-17T05:20:37.880Z,15.40
2023-05-17T05:23:06.281Z,15.40
2023-05-17T05:25:34.304Z,15.30
2023-05-17T05:28:01.408Z,15.30
2023-05-17T05:30:28.780Z,15.20
2023-05-17T05:32:56.316Z,15.30
2023-05-17T05:35:29.633Z,15.30
2023-05-17T05:38:00.955Z,15.40
2023-05-17T05:40:28.630Z,15.40
2023-05-17T05:42:58.865Z,15.50
2023-05-17T05:45:26.086Z,15.60
2023-05-17T05:47:53.404Z,15.70
2023-05-17T05:50:20.902Z,15.80
2023-05-17T05:52:47.963Z,16.10
2023-05-17T05:55:15.224Z,16.20
2023-05-17T05:57:42.299Z,16.40
2023-05-17T06:00:10.083Z,16.60
2023-05-17T06:02:37.864Z,16.90
2023-05-17T06:05:05.278Z,17.10
2023-05-17T06:07:32.408Z,17.30
2023-05-17T06:09:59.542Z,17.60
2023-05-17T06:12:26.686Z,17.80
2023-05-17T06:14:53.744Z,17.90
2023-05-17T06:17:21.677Z,18.00
2023-05-17T06:19:49.690Z,18.20
2023-05-17T06:22:16.794Z,18.30
2023-05-17T06:24:43.883Z,18.40
2023-05-17T06:27:12.911Z,18.40
2023-05-17T06:29:40.519Z,18.40
2023-05-17T06:32:15.774Z,18.30
2023-05-17T06:34:43.140Z,18.20
2023-05-17T06:37:11.123Z,18.10
2023-05-17T06:39:38.632Z,18.00
2023-05-17T06:42:05.903Z,18.10
2023-05-17T06:44:33.034Z,18.20
2023-05-17T06:47:04.148Z,18.30
2023-05-17T06:49:31.290Z,18.30
2023-05-17T06:52:03.651Z,18.20
2023-05-17T06:54:31.168Z,18.30
2023-05-17T06:57:02.085Z,18.40
2023-05-17T06:59:29.246Z,18.60
2023-05-17T07:01:56.703Z,18.80
2023-05-17T07:04:24.034Z,18.80
2023-05-17T07:06:51.244Z,18.80
2023-05-17T07:09:19.097Z,18.90
2023-05-17T07:11:47.904Z,18.90
2023-05-17T07:14:18.327Z,18.80
2023-05-17T07:16:45.367Z,18.80
2023-05-17T07:19:12.591Z,18.90
2023-05-17T07:21:40.100Z,19.00
2023-05-17T07:24:07.510Z,19.10
2023-05-17T07:26:34.641Z,19.10
2023-05-17T07:29:04.956Z,19.20
2023-05-17T07:31:32.510Z,19.30
2023-05-17T07:33:59.715Z,19.30
2023-05-17T07:36:31.416Z,19.40
2023-05-17T07:38:58.765Z,19.50
2023-05-17T07:41:28.366Z,19.60
2023-05-17T07:43:55.832Z,19.70
2023-05-17T07:46:23.103Z,19.80
2023-05-17T07:48:50.363Z,20.00
2023-05-17T07:51:17.542Z,20.20
2023-05-17T07:53:45.757Z,20.30
2023-05-17T07:56:13.391Z,20.30
2023-05-17T07:58:43.546Z,20.60
2023-05-17T08:01:10.965Z,20.80
2023-05-17T08:03:38.385Z,20.90
2023-05-17T08:06:11.892Z,21.10
2023-05-17T08:08:43.018Z,21.30
2023-05-17T08:11:11.049Z,21.40
2023-05-17T08:13:38.674Z,21.60
2023-05-17T08:16:13.417Z,21.80
2023-05-17T08:18:43.904Z,22.10
2023-05-17T08:21:12.068Z,22.30
2023-05-17T08:23:41.861Z,22.50
2023-05-17T08:26:09.291Z,22.60
2023-05-17T08:28:36.809Z,22.50
2023-05-17T08:31:04.500Z,22.40
2023-05-17T08:33:31.892Z,22.50
2023-05-17T08:36:01.529Z,22.50
2023-05-17T08:38:28.901Z,22.70
2023-05-17T08:41:00.158Z,22.90
2023-05-17T08:43:27.929Z,23.20
2023-05-17T08:45:58.156Z,23.30
2023-05-17T08:48:27.807Z,23.40
2023-05-17T08:50:55.419Z,23.70
2023-05-17T08:53:25.519Z,24.00
2023-05-17T08:55:54.146Z,24.10
2023-05-17T08:58:23.424Z,24.20
2023-05-17T09:00:51.048Z,24.30
2023-05-17T09:03:19.336Z,24.30
2023-05-17T09:05:46.690Z,24.40
2023-05-17T09:08:14.330Z,24.30
2023-05-17T09:10:42.655Z,24.30
2023-05-17T09:13:13.281Z,24.10
2023-05-17T09:15:43.616Z,24.00
2023-05-17T09:22:28.852Z,23.90
2023-05-17T09:24:56.303Z,23.60
2023-05-17T09:27:23.472Z,23.50
2023-05-17T09:29:50.889Z,23.30
2023-05-17T09:32:20.839Z,23.20
2023-05-17T09:38:29.667Z,22.70
2023-05-17T09:40:56.983Z,22.50
2023-05-17T09:43:27.288Z,22.40
2023-05-17T09:45:58.235Z,22.40
2023-05-17T09:52:35.528Z,22.40
2023-05-17T09:55:02.768Z,22.40
2023-05-17T09:57:37.316Z,22.30
2023-05-17T10:00:11.326Z,22.20
2023-05-17T10:02:41.424Z,22.10
2023-05-17T10:08:56.987Z,22.20
2023-05-17T10:11:35.775Z,22.40
2023-05-17T10:14:19.468Z,22.50
2023-05-17T10:16:46.786Z,22.60
2023-05-17T10:19:14.335Z,22.60
2023-05-17T10:21:43.183Z,22.60
2023-05-17T10:24:18.011Z,22.70
2023-05-17T10:26:45.244Z,22.80
2023-05-17T10:29:12.550Z,22.90
2023-05-17T10:31:39.779Z,22.90
2023-05-17T10:34:07.274Z,22.80
2023-05-17T10:36:34.699Z,22.70
2023-05-17T10:39:02.298Z,22.60
2023-05-17T10:41:33.425Z,22.40
2023-05-17T10:44:02.850Z,22.30
2023-05-17T10:46:30.347Z,22.10
2023-05-17T10:48:59.469Z,21.90
2023-05-17T10:51:30.393Z,21.80
2023-05-17T10:54:13.449Z,21.70
2023-05-17T10:56:51.680Z,21.70
2023-05-17T10:59:27.127Z,21.60
2023-05-17T11:02:03.848Z,21.80
2023-05-17T11:04:37.907Z,22.00
2023-05-17T11:07:17.830Z,22.30
2023-05-17T11:10:11.828Z,22.40
2023-05-17T11:12:43.923Z,22.60
2023-05-17T11:15:12.158Z,22.70
2023-05-17T11:17:46.970Z,22.80
2023-05-17T11:20:17.408Z,22.90
2023-05-17T11:23:00.996Z,22.90
2023-05-17T11:25:29.346Z,23.10
2023-05-17T11:27:59.771Z,23.40
2023-05-17T11:30:29.188Z,23.90
2023-05-17T11:35:44.954Z,24.50
2023-05-17T11:38:24.623Z,24.70
2023-05-17T11:40:55.377Z,25.00
2023-05-17T11:43:23.598Z,25.50
2023-05-17T11:45:53.452Z,25.70
2023-05-17T11:48:22.310Z,26.00
2023-05-17T11:50:50.755Z,26.20
2023-05-17T11:53:18.019Z,25.90
2023-05-17T11:55:47.691Z,25.60
2023-05-17T11:58:17.248Z,25.10
2023-05-17T12:00:45.370Z,24.70
2023-05-17T12:03:23.360Z,24.40
2023-05-17T12:05:52.504Z,24.20
2023-05-17T12:08:23.735Z,24.00
2023-05-17T12:10:52.167Z,23.80
2023-05-17T12:13:24.233Z,23.60
2023-05-17T12:16:06.033Z,23.50
2023-05-17T12:18:40.821Z,23.40
2023-05-17T12:21:09.324Z,23.30
2023-05-17T12:23:38.326Z,23.20
2023-05-17T12:26:09.340Z,23.20
2023-05-17T12:28:38.585Z,23.30
2023-05-17T12:31:08.008Z,23.30
2023-05-17T12:33:37.296Z,23.40
2023-05-17T12:36:04.914Z,23.40
2023-05-17T12:38:35.566Z,23.50
2023-05-17T12:41:06.324Z,23.40
2023-05-17T12:43:34.320Z,23.40
2023-05-17T12:46:09.066Z,23.30
2023-05-17T12:48:36.952Z,23.20
2023-05-17T12:51:08.395Z,23.10
2023-05-17T12:53:43.697Z,23.10
2023-05-17T12:56:37.404Z,23.30
2023-05-17T12:59:08.263Z,23.70
2023-05-17T13:01:36.636Z,23.90
2023-05-17T13:04:04.280Z,24.00
2023-05-17T13:06:47.078Z,24.00
2023-05-17T13:09:14.789Z,23.80
2023-05-17T13:11:42.792Z,23.60
2023-05-17T13:14:10.437Z,23.50
2023-05-17T13:16:44.794Z,23.50
2023-05-17T13:19:14.685Z,23.40
2023-05-17T13:21:41.924Z,23.40
2023-05-17T13:24:12.980Z,23.40
2023-05-17T13:26:41.366Z,23.30
2023-05-17T13:29:08.662Z,23.10
2023-05-17T13:31:41.068Z,23.10
2023-05-17T13:34:08.182Z,23.00
2023-05-17T13:36:35.309Z,23.00
2023-05-17T13:39:04.979Z,22.90
2023-05-17T13:41:32.141Z,22.90
2023-05-17T13:43:59.323Z,22.80
2023-05-17T13:46:26.614Z,22.70
2023-05-17T13:48:56.750Z,22.60
2023-05-17T13:51:25.600Z,22.60
2023-05-17T13:53:52.742Z,22.40
2023-05-17T13:56:19.835Z,22.40
2023-05-17T13:58:48.409Z,22.30
2023-05-17T14:01:16.306Z,22.10
2023-05-17T14:03:43.439Z,22.00
2023-05-17T14:06:10.750Z,21.90
2023-05-17T14:08:38.085Z,21.80
2023-05-17T14:11:05.283Z,21.80
2023-05-17T14:13:32.915Z,21.70
2023-05-17T14:16:00.495Z,21.60
2023-05-17T14:18:27.913Z,21.60
2023-05-17T14:20:55.188Z,21.50
2023-05-17T14:23:23.373Z,21.50
2023-05-17T14:25:50.545Z,21.40
2023-05-17T14:28:18.369Z,21.40
2023-05-17T14:30:47.081Z,21.40
2023-05-17T14:33:14.416Z,21.40
2023-05-17T14:35:42.230Z,21.40
2023-05-17T14:42:01.099Z,21.40
2023-05-17T14:44:28.522Z,21.40
2023-05-17T14:46:55.986Z,21.40
2023-05-17T14:49:23.506Z,21.40
2023-05-17T14:51:51.984Z,21.30
2023-05-17T14:54:20.750Z,21.20
2023-05-17T14:56:48.270Z,21.20
2023-05-17T14:59:16.393Z,21.10
2023-05-17T15:01:43.836Z,21.10
2023-05-17T15:04:13.939Z,21.10
2023-05-17T15:06:41.827Z,21.00
2023-05-17T15:09:12.590Z,21.10
2023-05-17T15:11:40.112Z,21.20
2023-05-17T15:14:07.434Z,21.20
2023-05-17T15:16:35.143Z,21.30
2023-05-17T15:19:02.332Z,21.40
2023-05-17T15:21:30.042Z,21.40
2023-05-17T15:24:03.136Z,21.40
2023-05-17T15:26:30.495Z,21.40
2023-05-17T15:29:00.385Z,21.40
2023-05-17T15:31:31.213Z,21.40
2023-05-17T15:34:08.924Z,21.50
2023-05-17T15:36:36.888Z,21.50
2023-05-17T15:39:04.358Z,21.60
2023-05-17T15:41:31.886Z,21.50
2023-05-17T15:43:59.789Z,21.50
2023-05-17T15:46:27.150Z,21.40
2023-05-17T15:48:54.470Z,21.20
2023-05-17T15:51:21.561Z,21.20
2023-05-17T15:53:48.629Z,21.10
2023-05-17T15:56:17.801Z,21.10
2023-05-17T15:58:47.418Z,21.10
2023-05-17T16:01:14.727Z,21.10
2023-05-17T16:03:44.821Z,21.10
2023-05-17T16:06:12.180Z,21.20
2023-05-17T16:08:39.419Z,21.10
2023-05-17T16:11:07.337Z,21.00
2023-05-17T16:13:34.523Z,20.90
2023-05-17T16:16:01.971Z,20.80
2023-05-17T16:18:31.354Z,20.80
2023-05-17T16:21:08.439Z,20.70
2023-05-17T16:23:35.650Z,20.70
2023-05-17T16:26:03.092Z,20.60
2023-05-17T16:28:32.539Z,20.50
2023-05-17T16:30:59.902Z,20.60
2023-05-17T16:33:27.102Z,20.60
2023-05-17T16:35:57.453Z,20.50
2023-05-17T16:38:25.786Z,20.50
2023-05-17T16:40:52.935Z,20.50
2023-05-17T16:43:20.478Z,20.40
2023-05-17T16:45:47.732Z,20.40
2023-05-17T16:48:15.388Z,20.30
2023-05-17T16:50:42.864Z,20.20
2023-05-17T16:53:10.196Z,20.00
2023-05-17T16:55:37.413Z,19.80
2023-05-17T16:58:05.293Z,19.70
2023-05-17T17:00:32.412Z,19.50
2023-05-17T17:03:00.035Z,19.30
2023-05-17T17:05:27.942Z,19.30
2023-05-17T17:07:55.169Z,19.30
2023-05-17T17:10:22.417Z,19.20
2023-05-17T17:12:49.830Z,19.20
2023-05-17T17:15:17.038Z,19.20
2023-05-17T17:17:45.961Z,19.20
2023-05-17T17:20:13.697Z,19.10
2023-05-17T17:22:41.575Z,19.00
2023-05-17T17:25:09.370Z,18.90
2023-05-17T17:27:36.627Z,18.90
2023-05-17T17:30:04.264Z,18.80
2023-05-17T17:32:31.776Z,18.80
2023-05-17T17:34:59.014Z,18.60
2023-05-17T17:37:26.228Z,18.60
2023-05-17T17:39:53.406Z,18.50
2023-05-17T17:42:20.878Z,18.30
2023-05-17T17:44:48.012Z,18.30
2023-05-17T17:47:15.297Z,18.20
2023-05-17T17:49:42.628Z,18.20
2023-05-17T17:52:09.770Z,18.10
2023-05-17T17:54:37.028Z,18.10
2023-05-17T17:57:04.695Z,18.00
2023-05-17T17:59:31.985Z,17.90
2023-05-17T18:01:59.904Z,17.90
2023-05-17T18:04:27.179Z,17.80
2023-05-17T18:06:55.162Z,17.70
2023-05-17T18:09:23.534Z,17.70
2023-05-17T18:11:51.018Z,17.70
2023-05-17T18:14:19.878Z,17.60
2023-05-17T18:16:49.309Z,17.60
2023-05-17T18:19:16.711Z,17.60
2023-05-17T18:21:44.091Z,17.70
2023-05-17T18:24:11.223Z,17.70
2023-05-17T18:26:38.405Z,17.60
2023-05-17T18:29:05.601Z,17.60
2023-05-17T18:31:32.784Z,17.60
2023-05-17T18:33:59.924Z,17.50
2023-05-17T18:36:28.131Z,17.60
2023-05-17T18:38:58.911Z,17.60
2023-05-17T18:41:26.401Z,17.60
2023-05-17T18:43:53.639Z,17.50
2023-05-17T18:46:20.910Z,17.40
2023-05-17T18:48:48.170Z,17.30
2023-05-17T18:51:16.013Z,17.20
2023-05-17T18:53:43.679Z,17.30
2023-05-17T18:56:11.569Z,17.30
2023-05-17T18:58:38.778Z,17.30
2023-05-17T19:01:06.209Z,17.30
2023-05-17T19:03:33.544Z,17.30
2023-05-17T19:06:00.807Z,17.20
2023-05-17T19:08:27.921Z,17.20
2023-05-17T19:10:55.278Z,17.10
2023-05-17T19:13:22.691Z,17.00
2023-05-17T19:15:51.961Z,17.00
2023-05-17T19:18:19.164Z,16.90
2023-05-17T19:20:46.230Z,16.90
2023-05-17T19:23:13.446Z,16.80
2023-05-17T19:25:40.771Z,16.70
2023-05-17T19:28:07.924Z,16.80
2023-05-17T19:30:35.746Z,16.80
2023-05-17T19:33:03.945Z,16.70
2023-05-17T19:35:31.496Z,16.70
2023-05-17T19:37:58.933Z,16.70
2023-05-17T19:40:26.174Z,16.70
2023-05-17T19:42:53.295Z,16.80
2023-05-17T19:45:23.397Z,16.80
2023-05-17T19:47:50.730Z,16.80
2023-05-17T19:50:17.987Z,16.80
2023-05-17T19:52:45.464Z,16.70
2023-05-17T19:55:16.192Z,16.70
2023-05-17T19:57:43.448Z,16.70
2023-05-17T20:00:11.143Z,16.60
2023-05-17T20:02:38.377Z,16.60
2023-05-17T20:05:06.178Z,16.60
2023-05-17T20:07:36.732Z,16.50
2023-05-17T20:10:04.684Z,16.40
2023-05-17T20:12:31.912Z,16.50
2023-05-17T20:14:59.128Z,16.50
2023-05-17T20:17:29.109Z,16.60
2023-05-17T20:19:56.691Z,16.50
2023-05-17T20:22:23.847Z,16.40
2023-05-17T20:24:50.994Z,16.30
2023-05-17T20:27:18.085Z,16.30
2023-05-17T20:29:45.135Z,16.30
2023-05-17T20:32:12.846Z,16.30
2023-05-17T20:34:39.994Z,16.30
2023-05-17T20:37:07.215Z,16.30
2023-05-17T20:39:34.531Z,16.20
2023-05-17T20:42:01.626Z,16.00
2023-05-17T20:44:28.923Z,16.00
2023-05-17T20:46:57.134Z,16.00
2023-05-17T20:49:24.458Z,15.90
2023-05-17T20:51:51.664Z,15.80
2023-05-17T20:54:18.946Z,15.70
2023-05-17T20:56:46.231Z,15.70
2023-05-17T20:59:13.492Z,15.60
2023-05-17T21:01:41.611Z,15.50
2023-05-17T21:04:08.935Z,15.40
2023-05-17T21:06:36.586Z,15.40
2023-05-17T21:09:04.004Z,15.50
2023-05-17T21:11:31.608Z,15.60
2023-05-17T21:14:00.006Z,15.70
2023-05-17T21:16:27.352Z,15.60
2023-05-17T21:18:54.811Z,15.60
2023-05-17T21:21:22.448Z,15.50
2023-05-17T21:23:49.662Z,15.30
2023-05-17T21:26:16.893Z,15.30
2023-05-17T21:28:44.115Z,15.20
2023-05-17T21:31:11.413Z,15.10
2023-05-17T21:33:40.036Z,15.10
2023-05-17T21:36:08.668Z,15.00
2023-05-17T21:38:36.224Z,14.90
2023-05-17T21:41:03.501Z,14.90
2023-05-17T21:43:33.645Z,14.90
2023-05-17T21:46:00.876Z,15.00
2023-05-17T21:48:28.704Z,15.10
2023-05-17T21:50:55.912Z,15.20
2023-05-17T21:53:23.000Z,15.20
2023-05-17T21:56:01.488Z,15.30
2023-05-17T21:58:30.512Z,15.20
2023-05-17T22:00:58.623Z,15.10
2023-05-17T22:03:28.011Z,15.10
2023-05-17T22:05:55.292Z,15.00
2023-05-17T22:08:22.609Z,14.90
2023-05-17T22:10:50.486Z,14.90
2023-05-17T22:13:18.503Z,14.80
2023-05-17T22:15:49.230Z,14.80
2023-05-17T22:18:16.157Z,14.80
2023-05-17T22:20:43.420Z,14.70
2023-05-17T22:23:10.556Z,14.70
2023-05-17T22:25:37.775Z,14.70
2023-05-17T22:28:05.159Z,14.90
2023-05-17T22:30:32.535Z,14.90
2023-05-17T22:33:01.201Z,14.90
2023-05-17T22:35:28.490Z,14.90
2023-05-17T22:37:58.132Z,15.00
2023-05-17T22:40:25.322Z,15.00
2023-05-17T22:42:52.505Z,14.90
2023-05-17T22:45:19.646Z,15.00
2023-05-17T22:47:47.047Z,15.00
2023-05-17T22:50:15.930Z,15.00
2023-05-17T22:52:43.386Z,15.00
2023-05-17T22:55:11.170Z,15.00
2023-05-17T22:57:38.455Z,15.00
2023-05-17T23:00:06.531Z,14.90
2023-05-17T23:02:34.144Z,14.90
2023-05-17T23:05:03.983Z,14.90
2023-05-17T23:07:37.140Z,14.90
2023-05-17T23:10:09.240Z,14.90
2023-05-17T23:12:37.263Z,14.80
2023-05-17T23:15:05.290Z,14.90
2023-05-17T23:17:34.189Z,14.80
2023-05-17T23:20:11.588Z,14.80
2023-05-17T23:22:39.105Z,14.70
2023-05-17T23:25:06.819Z,14.70
2023-05-17T23:27:35.537Z,14.70
2023-05-17T23:30:03.051Z,14.70
2023-05-17T23:32:32.743Z,14.70
2023-05-17T23:35:06.281Z,14.70
2023-05-17T23:37:33.866Z,14.70
2023-05-17T23:40:01.380Z,14.70
2023-05-17T23:42:32.007Z,14.80
2023-05-17T23:44:59.371Z,14.70
2023-05-17T23:47:28.408Z,14.70
2023-05-17T23:49:57.054Z,14.70
2023-05-17T23:52:24.554Z,14.70
2023-05-17T23:54:57.750Z,14.70
2023-05-17T23:57:25.085Z,14.70
2023-05-17T23:59:52.303Z,14.70
